Terminal Aerodrome Forecast
Issued by NWS Sterling, VA

Current Version | Previous Version | Text Only | Print | Product List | Glossary On
Versions: 1 2 3 4 5 6 7 8 9 10 11 12 13 14 15 16 17 18 19 20 21 22
000
FTUS41 KLWX 011400 AAA
TAFIAD
TAF AMD
KIAD 011437Z 0115/0218 18006KT P6SM OVC060
     FM012300 14006KT 6SM -RA OVC050
     FM020000 14006KT 6SM -RA OVC025
     FM020200 14007KT 4SM RA BR OVC025
     FM020600 16007KT 6SM RA OVC008
     FM020800 17007KT 6SM -RA OVC008 WS020/20035KT
     FM021500 27007KT 6SM -RA OVC025
     FM021700 29012G20KT P6SM BKN025=

USA.gov is the U.S. government's official web portal to all federal, state and local government web resources and services.